Snoqualmie River: Snoqualmie Falls station

back to: Snoqualmie river
Snoqualmie Falls station Summary - (NOAA Hydrograph: SQUW1)
flood stage: 12.88 ft
Latest reading:
Wed05/23 04:10 pm 7.08 ft 4346 cfs (-192/hr)
Past 24hr max:
Wed05/23 07:55 am 7.31 ft 4722 cfs
Forecasted crests: (published Wed 05/23/18 08:58 am)
Thu05/24 05:00 am 7.45 ft 4953 cfs
Mon05/28 05:00 am 6.12 ft 2974 cfs
Tue05/29 05:00 am 6.04 ft 2874 cfs
Wed05/30 05:00 am 5.98 ft 2795 cfs

Snoqualmie Falls station Details

Latest Readings

Last 100 Readings:
Wed05/23 04:10 pm 7.08 ft 4346 cfs
Wed05/23 04:05 pm 7.09 ft 4362 cfs
Wed05/23 04:00 pm 7.09 ft 4362 cfs
Wed05/23 03:55 pm 7.1 ft 4378 cfs
Wed05/23 03:50 pm 7.1 ft 4378 cfs
Wed05/23 03:45 pm 7.11 ft 4394 cfs
Wed05/23 03:40 pm 7.12 ft 4410 cfs
Wed05/23 03:35 pm 7.11 ft 4394 cfs
Wed05/23 03:30 pm 7.11 ft 4394 cfs
Wed05/23 03:25 pm 7.12 ft 4410 cfs
Wed05/23 03:20 pm 7.13 ft 4426 cfs
Wed05/23 03:15 pm 7.13 ft 4426 cfs
Wed05/23 03:10 pm 7.12 ft 4410 cfs
Wed05/23 03:05 pm 7.12 ft 4410 cfs
Wed05/23 03:00 pm 7.14 ft 4442 cfs
Wed05/23 02:55 pm 7.13 ft 4426 cfs
Wed05/23 02:50 pm 7.14 ft 4442 cfs
Wed05/23 02:45 pm 7.12 ft 4410 cfs
Wed05/23 02:40 pm 7.14 ft 4442 cfs
Wed05/23 02:35 pm 7.14 ft 4442 cfs
Wed05/23 02:30 pm 7.13 ft 4426 cfs
Wed05/23 02:25 pm 7.15 ft 4458 cfs
Wed05/23 02:20 pm 7.14 ft 4442 cfs
Wed05/23 02:15 pm 7.14 ft 4442 cfs
Wed05/23 02:10 pm 7.16 ft 4475 cfs
Wed05/23 02:05 pm 7.15 ft 4458 cfs
Wed05/23 02:00 pm 7.15 ft 4458 cfs
Wed05/23 01:55 pm 7.17 ft 4491 cfs
Wed05/23 01:50 pm 7.16 ft 4475 cfs
Wed05/23 01:45 pm 7.17 ft 4491 cfs
Wed05/23 01:40 pm 7.16 ft 4475 cfs
Wed05/23 01:35 pm 7.17 ft 4491 cfs
Wed05/23 01:30 pm 7.18 ft 4507 cfs
Wed05/23 01:25 pm 7.19 ft 4523 cfs
Wed05/23 01:20 pm 7.19 ft 4523 cfs
Wed05/23 01:15 pm 7.17 ft 4491 cfs
Wed05/23 01:10 pm 7.18 ft 4507 cfs
Wed05/23 01:05 pm 7.19 ft 4523 cfs
Wed05/23 01:00 pm 7.2 ft 4540 cfs
Wed05/23 12:55 pm 7.2 ft 4540 cfs
Wed05/23 12:50 pm 7.2 ft 4540 cfs
Wed05/23 12:45 pm 7.19 ft 4523 cfs
Wed05/23 12:40 pm 7.2 ft 4540 cfs
Wed05/23 12:35 pm 7.19 ft 4523 cfs
Wed05/23 12:30 pm 7.21 ft 4556 cfs
Wed05/23 12:25 pm 7.2 ft 4540 cfs
Wed05/23 12:20 pm 7.2 ft 4540 cfs
Wed05/23 12:15 pm 7.2 ft 4540 cfs
Wed05/23 12:10 pm 7.21 ft 4556 cfs
Wed05/23 12:05 pm 7.2 ft 4540 cfs
Wed05/23 12:00 pm 7.2 ft 4540 cfs
Wed05/23 11:55 am 7.21 ft 4556 cfs
Wed05/23 11:50 am 7.21 ft 4556 cfs
Wed05/23 11:45 am 7.23 ft 4589 cfs
Wed05/23 11:40 am 7.2 ft 4540 cfs
Wed05/23 11:35 am 7.23 ft 4589 cfs
Wed05/23 11:30 am 7.22 ft 4573 cfs
Wed05/23 11:25 am 7.24 ft 4605 cfs
Wed05/23 11:20 am 7.23 ft 4589 cfs
Wed05/23 11:15 am 7.24 ft 4605 cfs
Wed05/23 11:10 am 7.23 ft 4589 cfs
Wed05/23 11:05 am 7.24 ft 4605 cfs
Wed05/23 11:00 am 7.24 ft 4605 cfs
Wed05/23 10:55 am 7.22 ft 4573 cfs
Wed05/23 10:50 am 7.24 ft 4605 cfs
Wed05/23 10:45 am 7.25 ft 4622 cfs
Wed05/23 10:40 am 7.24 ft 4605 cfs
Wed05/23 10:35 am 7.24 ft 4605 cfs
Wed05/23 10:30 am 7.25 ft 4622 cfs
Wed05/23 10:25 am 7.25 ft 4622 cfs
Wed05/23 10:20 am 7.25 ft 4622 cfs
Wed05/23 10:15 am 7.25 ft 4622 cfs
Wed05/23 10:10 am 7.25 ft 4622 cfs
Wed05/23 10:05 am 7.27 ft 4655 cfs
Wed05/23 10:00 am 7.25 ft 4622 cfs
Wed05/23 09:55 am 7.26 ft 4638 cfs
Wed05/23 09:50 am 7.27 ft 4655 cfs
Wed05/23 09:45 am 7.28 ft 4672 cfs
Wed05/23 09:40 am 7.28 ft 4672 cfs
Wed05/23 09:35 am 7.27 ft 4655 cfs
Wed05/23 09:30 am 7.28 ft 4672 cfs
Wed05/23 09:25 am 7.28 ft 4672 cfs
Wed05/23 09:20 am 7.28 ft 4672 cfs
Wed05/23 09:15 am 7.27 ft 4655 cfs
Wed05/23 09:10 am 7.28 ft 4672 cfs
Wed05/23 09:05 am 7.27 ft 4655 cfs
Wed05/23 09:00 am 7.28 ft 4672 cfs
Wed05/23 08:55 am 7.27 ft 4655 cfs
Wed05/23 08:50 am 7.28 ft 4672 cfs
Wed05/23 08:45 am 7.29 ft 4688 cfs
Wed05/23 08:40 am 7.28 ft 4672 cfs
Wed05/23 08:35 am 7.28 ft 4672 cfs
Wed05/23 08:30 am 7.29 ft 4688 cfs
Wed05/23 08:25 am 7.28 ft 4672 cfs
Wed05/23 08:20 am 7.29 ft 4688 cfs
Wed05/23 08:15 am 7.28 ft 4672 cfs
Wed05/23 08:10 am 7.3 ft 4705 cfs
Wed05/23 08:05 am 7.29 ft 4688 cfs
Wed05/23 08:00 am 7.28 ft 4672 cfs
Wed05/23 07:55 am 7.31 ft 4722 cfs

Latest Forecasts

Currently Forecasted Readings:
Wed05/23 11:00 am 7.31 ft 4725 cfs
Wed05/23 05:00 pm 7.31 ft 4722 cfs
Wed05/23 11:00 pm 7.38 ft 4840 cfs
Thu05/24 05:00 am 7.45 ft 4953 cfs
Thu05/24 11:00 am 7.42 ft 4903 cfs
Thu05/24 05:00 pm 7.28 ft 4672 cfs
Thu05/24 11:00 pm 7.14 ft 4447 cfs
Fri05/25 05:00 am 7.05 ft 4295 cfs
Fri05/25 11:00 am 6.95 ft 4139 cfs
Fri05/25 05:00 pm 6.82 ft 3949 cfs
Fri05/25 11:00 pm 6.73 ft 3805 cfs
Sat05/26 05:00 am 6.67 ft 3727 cfs
Sat05/26 11:00 am 6.6 ft 3623 cfs
Sat05/26 05:00 pm 6.48 ft 3448 cfs
Sat05/26 11:00 pm 6.36 ft 3283 cfs
Sun05/27 05:00 am 6.29 ft 3196 cfs
Sun05/27 11:00 am 6.23 ft 3107 cfs
Sun05/27 05:00 pm 6.14 ft 2995 cfs
Sun05/27 11:00 pm 6.1 ft 2945 cfs
Mon05/28 05:00 am 6.12 ft 2974 cfs
Mon05/28 11:00 am 6.11 ft 2959 cfs
Mon05/28 05:00 pm 6.04 ft 2866 cfs
Mon05/28 11:00 pm 6.01 ft 2835 cfs
Tue05/29 05:00 am 6.04 ft 2874 cfs
Tue05/29 11:00 am 6.04 ft 2871 cfs
Tue05/29 05:00 pm 5.97 ft 2789 cfs
Tue05/29 11:00 pm 5.95 ft 2758 cfs
Wed05/30 05:00 am 5.98 ft 2795 cfs
Wed05/30 11:00 am 5.96 ft 2775 cfs
Wed05/30 05:00 pm 5.89 ft 2685 cfs
Wed05/30 11:00 pm 5.83 ft 2609 cfs
Thu05/31 05:00 am 5.8 ft 2582 cfs
Thu05/31 11:00 am 5.76 ft 2535 cfs
Thu05/31 05:00 pm 5.67 ft 2434 cfs
Thu05/31 11:00 pm 5.59 ft 2342 cfs
Fri06/01 05:00 am 5.55 ft 2296 cfs
Fri06/01 11:00 am 5.5 ft 2246 cfs
Fri06/01 05:00 pm 5.43 ft 2165 cfs
Fri06/01 11:00 pm 5.37 ft 2103 cfs
Sat06/02 05:00 am 5.39 ft 2121 cfs

Snoqualmie River flood gauge data supplied by the
National Weather Service Northwest River Forecast Center.

Sign up for Floodzilla alerts.